Armstrong, Florida
Current Conditions -  °F | °C
As of 6:58 PM on Saturday 25 Oct 2014 (Local Time) from KSGJ Reporting Station
Clear Clear  
Wind Chill: 69°   Ceiling: Unl
Heat Index: 69°   Visibility: 10mi
Dew Point: 54°   Wind: 5mph
Humidity: 58%   Direction: 20°NNE
Pressure: 29.98"   Gusts: NA
Location:  29.7919°N, 81.4499°W
Report Text: KSGJ 252258Z 02004KT 10SM CLR 21/12 A2998 RMK AO2 SLP152 T02060122
Loading
Personal Weather Stations






























Interactive Weather Map
Tropical Storm Tracking
New forecast layout! Learn more

10-Day Weather Forecast

Advertisements
Track Severe Weather on mobile